Time;durP1;ratioP1;P1;durP2;ratioP2;P2;SDS_P1;SDS_P2;PMS_P1;PMS_P2;Temp;Humidity;BMP_temperature;BMP_pressure;BME280_temperature;BME280_humidity;BME280_pressure;Samples;Min_cycle;Max_cycle;Signal;HPM_P1;HPM_P2
2023/07/27 14:30:07;;;;;;;25.58;24.08;;;28.90;97.30;;;;;;5815408;22;10721781;-94
2023/07/27 14:32:33;;;;;;;26.13;24.70;;;28.80;98.00;;;;;;6191855;23;20008;-95
2023/07/27 14:35:01;;;;;;;26.40;24.55;;;28.60;97.50;;;;;;6191921;23;20493;-94
2023/07/27 14:37:28;;;;;;;26.55;24.70;;;28.60;97.30;;;;;;6192516;23;20047;-93
2023/07/27 14:39:54;;;;;;;25.92;24.38;;;28.60;97.40;;;;;;6185860;23;20001;-94
2023/07/27 14:42:21;;;;;;;25.73;24.33;;;28.50;97.60;;;;;;6210490;23;20009;-95
2023/07/27 14:44:48;;;;;;;25.92;24.45;;;28.60;96.10;;;;;;6185499;23;20039;-93
2023/07/27 14:47:17;;;;;;;26.85;25.35;;;28.80;97.40;;;;;;6210969;23;20005;-94
2023/07/27 14:49:44;;;;;;;26.88;25.38;;;28.80;98.50;;;;;;6185282;23;20316;-94
2023/07/27 14:52:11;;;;;;;27.23;25.58;;;28.70;97.30;;;;;;6185339;23;20005;-90
2023/07/27 14:54:41;;;;;;;26.45;25.05;;;28.80;97.60;;;;;;6185606;23;20009;-93
2023/07/27 14:57:07;;;;;;;26.27;24.88;;;28.90;97.70;;;;;;6234837;22;20043;-93
2023/07/27 14:59:33;;;;;;;26.35;24.70;;;28.80;98.30;;;;;;6214394;23;20473;-92
2023/07/27 15:02:04;;;;;;;27.20;24.73;;;28.80;97.90;;;;;;6190635;23;20040;-92
2023/07/27 15:04:31;;;;;;;26.75;25.02;;;28.80;98.20;;;;;;6190409;23;20107;-91
2023/07/27 15:06:59;;;;;;;26.15;24.65;;;28.80;98.00;;;;;;6215265;23;20086;-93
2023/07/27 15:09:25;;;;;;;25.77;24.38;;;29.00;96.20;;;;;;6190480;23;20008;-95
2023/07/27 15:11:52;;;;;;;25.50;24.10;;;28.70;96.80;;;;;;6213430;23;20079;-90
2023/07/27 15:14:18;;;;;;;25.50;24.10;;;28.40;97.20;;;;;;6190429;23;20033;-90
2023/07/27 15:16:45;;;;;;;25.75;24.13;;;28.20;95.80;;;;;;6218055;23;20366;-90
2023/07/27 15:19:11;;;;;;;24.60;23.30;;;28.20;96.00;;;;;;6217986;23;20008;-93
2023/07/27 15:21:38;;;;;;;26.02;24.50;;;28.30;97.60;;;;;;6219002;23;20009;-88
2023/07/27 15:24:04;;;;;;;26.23;24.70;;;28.20;98.30;;;;;;6190366;23;20012;-93
2023/07/27 15:26:31;;;;;;;25.75;24.40;;;28.00;97.70;;;;;;6216078;23;20036;-94
2023/07/27 15:28:57;;;;;;;25.92;24.40;;;27.90;97.70;;;;;;6190921;23;20013;-93
2023/07/27 15:31:44;;;;;;;25.70;24.38;;;28.00;96.40;;;;;;6214275;23;20004;-90
2023/07/27 15:34:10;;;;;;;25.85;24.45;;;27.90;96.90;;;;;;6189195;23;20009;-87
2023/07/27 15:36:37;;;;;;;25.95;24.52;;;28.10;95.80;;;;;;6189314;23;20009;-91
2023/07/27 15:39:03;;;;;;;26.30;24.70;;;28.30;96.30;;;;;;6189931;23;20083;-92
2023/07/27 15:41:29;;;;;;;26.55;24.85;;;28.30;96.90;;;;;;6189541;23;20016;-90
2023/07/27 15:43:56;;;;;;;26.42;24.85;;;28.20;95.20;;;;;;6189164;23;20097;-90
2023/07/27 15:46:22;;;;;;;26.30;24.80;;;28.10;93.60;;;;;;6189322;23;20005;-92
2023/07/27 15:48:48;;;;;;;26.55;25.05;;;27.90;95.20;;;;;;6189161;23;20005;-90
2023/07/27 15:51:15;;;;;;;25.85;24.55;;;28.00;96.90;;;;;;6189223;23;20438;-90
2023/07/27 15:53:42;;;;;;;25.80;24.40;;;27.90;97.20;;;;;;6185109;23;20507;-90
2023/07/27 15:56:08;;;;;;;25.58;24.27;;;27.80;98.00;;;;;;6188685;23;20008;-91
2023/07/27 15:58:35;;;;;;;26.33;24.88;;;27.90;98.00;;;;;;6164776;23;20142;-91
2023/07/27 16:01:02;;;;;;;26.10;24.63;;;28.00;98.40;;;;;;6189158;23;20008;-90
2023/07/27 16:03:28;;;;;;;26.33;24.75;;;28.20;97.80;;;;;;6192750;23;20009;-93
2023/07/27 16:05:55;;;;;;;25.67;24.20;;;28.10;97.70;;;;;;6194473;23;20013;-91
2023/07/27 16:08:22;;;;;;;26.45;24.50;;;28.00;98.40;;;;;;6217567;23;20005;-90
2023/07/27 16:10:48;;;;;;;25.70;24.30;;;28.00;96.70;;;;;;6191765;23;20084;-92
2023/07/27 16:13:15;;;;;;;26.00;24.60;;;27.80;96.50;;;;;;6216808;23;20008;-92
2023/07/27 16:15:42;;;;;;;26.55;24.92;;;27.90;97.30;;;;;;6191831;23;20028;-92
2023/07/27 16:18:09;;;;;;;25.95;24.45;;;27.80;97.40;;;;;;6191974;23;20052;-90
2023/07/27 16:20:42;;;;;;;26.00;24.50;;;27.60;97.20;;;;;;6216921;23;20319;-92
2023/07/27 16:23:09;;;;;;;26.23;24.67;;;27.60;96.60;;;;;;6191786;23;20425;-93
2023/07/27 16:25:36;;;;;;;26.15;24.65;;;27.60;96.30;;;;;;6216695;23;20012;-91
2023/07/27 16:28:03;;;;;;;25.98;24.63;;;27.60;97.20;;;;;;6192071;23;20001;-90
2023/07/27 16:30:29;;;;;;;25.88;24.58;;;27.60;95.80;;;;;;6191734;23;20013;-91
2023/07/27 16:32:55;;;;;;;25.55;24.05;;;27.50;94.90;;;;;;6216614;23;20008;-93
2023/07/27 16:35:22;;;;;;;26.23;24.73;;;27.40;94.70;;;;;;6192108;23;20352;-92
2023/07/27 16:37:48;;;;;;;25.98;24.42;;;27.50;95.30;;;;;;6217074;23;20008;-92
2023/07/27 16:40:15;;;;;;;25.55;24.05;;;27.50;96.00;;;;;;6191636;23;20004;-91
2023/07/27 16:42:41;;;;;;;25.95;24.45;;;27.50;96.20;;;;;;6216762;23;20091;-92
2023/07/27 16:45:08;;;;;;;25.80;24.42;;;27.60;97.40;;;;;;6191512;23;20017;-90
2023/07/27 16:47:34;;;;;;;24.85;23.55;;;27.40;96.70;;;;;;6191365;23;20009;-91
2023/07/27 16:50:01;;;;;;;25.60;24.25;;;27.40;95.80;;;;;;6216389;23;20020;-93
2023/07/27 16:52:28;;;;;;;25.90;24.50;;;27.40;96.60;;;;;;6191248;23;20453;-91
2023/07/27 16:54:55;;;;;;;26.27;24.42;;;27.20;98.00;;;;;;6216847;23;20019;-92
2023/07/27 16:57:21;;;;;;;25.83;24.48;;;27.10;98.30;;;;;;6191276;23;20020;-91
2023/07/27 16:59:47;;;;;;;25.92;24.48;;;27.00;97.60;;;;;;6191548;23;20052;-90
2023/07/27 17:02:14;;;;;;;25.95;24.38;;;26.90;97.10;;;;;;6191441;23;20059;-92
2023/07/27 17:04:41;;;;;;;26.02;24.55;;;26.80;97.30;;;;;;6217142;23;20020;-92
2023/07/27 17:07:07;;;;;;;25.58;24.15;;;26.80;97.90;;;;;;6191663;23;20004;-91
2023/07/27 17:09:37;;;;;;;25.85;24.42;;;26.80;98.30;;;;;;6216403;23;20012;-92
2023/07/27 17:12:06;;;;;;;25.20;23.83;;;26.70;98.20;;;;;;6191119;23;20008;-92
2023/07/27 17:14:36;;;;;;;25.60;24.25;;;26.40;98.50;;;;;;6216332;23;20096;-91
2023/07/27 17:17:03;;;;;;;26.20;24.65;;;26.40;98.90;;;;;;6216161;23;20488;-90
2023/07/27 17:19:29;;;;;;;26.13;24.50;;;26.40;99.10;;;;;;6191294;23;20008;-91
2023/07/27 17:21:58;;;;;;;25.48;24.17;;;26.30;99.90;;;;;;6216252;23;20015;-91
2023/07/27 17:24:25;;;;;;;25.67;24.35;;;26.30;99.90;;;;;;6190949;23;20039;-90
2023/07/27 17:26:51;;;;;;;26.00;24.60;;;26.30;99.90;;;;;;6215975;23;20082;-90
2023/07/27 17:29:17;;;;;;;25.52;24.23;;;26.30;99.90;;;;;;6191649;23;20431;-91
2023/07/27 17:31:43;;;;;;;25.42;24.02;;;26.30;99.90;;;;;;6191170;23;20040;-90
2023/07/27 17:34:10;;;;;;;26.05;24.35;;;26.10;99.30;;;;;;6215958;23;20036;-91
2023/07/27 17:36:36;;;;;;;25.67;24.27;;;26.00;99.40;;;;;;6190968;23;20007;-91
2023/07/27 17:39:03;;;;;;;25.08;23.77;;;26.10;98.90;;;;;;6216193;23;20083;-92
2023/07/27 17:41:29;;;;;;;25.58;24.17;;;26.00;99.10;;;;;;6184394;23;20090;-90
2023/07/27 17:43:55;;;;;;;25.17;23.88;;;26.00;99.00;;;;;;6215725;23;20017;-89
2023/07/27 17:46:22;;;;;;;25.58;24.17;;;26.00;98.90;;;;;;6190958;23;20001;-89
2023/07/27 17:48:48;;;;;;;24.95;23.65;;;26.00;98.60;;;;;;6191018;23;20004;-91
2023/07/27 17:51:15;;;;;;;25.80;24.33;;;25.90;98.80;;;;;;6215772;23;20430;-90
2023/07/27 17:53:42;;;;;;;25.13;23.75;;;25.80;99.40;;;;;;6215788;23;20012;-89
2023/07/27 17:56:08;;;;;;;25.63;24.23;;;25.70;99.90;;;;;;6194588;23;20307;-90
2023/07/27 17:58:35;;;;;;;25.13;23.80;;;25.60;99.90;;;;;;6221003;23;20004;-91
2023/07/27 18:01:01;;;;;;;25.00;23.70;;;25.60;99.90;;;;;;6196188;23;20012;-90
2023/07/27 18:03:27;;;;;;;25.17;23.60;;;25.50;99.90;;;;;;6220705;23;20040;-91
2023/07/27 18:05:54;;;;;;;25.05;23.65;;;25.40;99.90;;;;;;6195750;23;20035;-90
2023/07/27 18:08:20;;;;;;;24.42;23.13;;;25.40;99.90;;;;;;6221243;23;20004;-88
2023/07/27 18:10:49;;;;;;;25.40;23.90;;;25.40;99.90;;;;;;6195819;23;20016;-95
2023/07/27 18:13:15;;;;;;;24.48;22.75;;;25.40;99.90;;;;;;6220513;23;20086;-92
2023/07/27 18:15:43;;;;;;;24.50;22.92;;;25.40;99.90;;;;;;6195723;23;20008;-91
2023/07/27 18:18:10;;;;;;;25.15;23.75;;;25.30;99.90;;;;;;6221074;23;20007;-89
2023/07/27 18:20:36;;;;;;;23.95;22.75;;;25.30;99.90;;;;;;6195968;23;20031;-92
2023/07/27 18:23:05;;;;;;;24.70;23.15;;;25.30;99.90;;;;;;6220759;23;20008;-90
2023/07/27 18:25:32;;;;;;;23.90;22.60;;;25.30;99.90;;;;;;6195547;23;20016;-91
2023/07/27 18:27:58;;;;;;;24.10;22.73;;;25.20;99.90;;;;;;6221131;23;20004;-90
2023/07/27 18:30:24;;;;;;;24.00;22.60;;;25.10;99.90;;;;;;6195732;23;20008;-91
2023/07/27 18:32:51;;;;;;;23.90;22.70;;;25.00;99.90;;;;;;6195574;23;20429;-93
2023/07/27 18:35:20;;;;;;;23.73;22.48;;;25.10;99.90;;;;;;6221184;23;20011;-90
2023/07/27 18:37:46;;;;;;;23.88;22.48;;;25.10;99.90;;;;;;6195961;23;20018;-90
2023/07/27 18:40:13;;;;;;;24.40;23.00;;;25.00;99.90;;;;;;6220702;23;20008;-90
2023/07/27 18:42:39;;;;;;;23.88;22.58;;;24.90;99.90;;;;;;6195471;22;20008;-90
2023/07/27 18:45:10;;;;;;;24.23;22.92;;;24.90;99.90;;;;;;6221327;23;20016;-90
2023/07/27 18:47:37;;;;;;;24.05;22.65;;;24.90;99.90;;;;;;6195791;23;20015;-91
2023/07/27 18:50:05;;;;;;;24.58;23.05;;;24.90;99.90;;;;;;6195393;23;20004;-90
2023/07/27 18:52:32;;;;;;;24.58;23.08;;;24.90;99.90;;;;;;6220251;22;20015;-92
2023/07/27 18:54:58;;;;;;;24.20;22.90;;;24.90;99.90;;;;;;6195225;23;20016;-92
2023/07/27 18:57:25;;;;;;;24.02;22.60;;;24.80;99.90;;;;;;6220311;23;20315;-90
2023/07/27 18:59:51;;;;;;;23.45;22.20;;;24.80;99.90;;;;;;6195643;23;20036;-92
2023/07/27 19:02:18;;;;;;;23.92;22.58;;;24.70;99.90;;;;;;6220593;23;20434;-92
2023/07/27 19:04:44;;;;;;;23.77;22.48;;;24.70;99.90;;;;;;6195303;23;20023;-90
2023/07/27 19:07:11;;;;;;;24.15;22.85;;;24.70;99.90;;;;;;6195593;23;20004;-91
2023/07/27 19:09:37;;;;;;;24.63;23.13;;;24.60;99.90;;;;;;6195186;23;20513;-91
2023/07/27 19:12:04;;;;;;;25.13;23.30;;;24.60;99.90;;;;;;6220331;23;20008;-93
2023/07/27 19:14:30;;;;;;;23.65;22.45;;;24.50;99.90;;;;;;6195114;23;20011;-91
2023/07/27 19:16:59;;;;;;;23.88;22.60;;;24.50;99.90;;;;;;6220202;23;20014;-92
2023/07/27 19:19:25;;;;;;;24.27;22.75;;;24.50;99.90;;;;;;6195327;23;20007;-91
2023/07/27 19:21:53;;;;;;;24.08;22.65;;;24.50;99.90;;;;;;6220489;23;20366;-90
2023/07/27 19:24:19;;;;;;;23.92;22.63;;;24.50;99.90;;;;;;6195323;23;20450;-91
2023/07/27 19:26:45;;;;;;;23.52;22.33;;;24.40;99.90;;;;;;6195198;23;20057;-90
2023/07/27 19:29:11;;;;;;;23.70;22.23;;;24.40;99.90;;;;;;6220273;23;20083;-91
2023/07/27 19:31:40;;;;;;;24.13;22.60;;;24.40;99.90;;;;;;6195227;23;20392;-91
2023/07/27 19:34:06;;;;;;;23.58;22.05;;;24.30;99.90;;;;;;6195034;23;20015;-90
2023/07/27 19:36:33;;;;;;;23.17;21.88;;;24.30;99.90;;;;;;6220351;23;20499;-91
2023/07/27 19:39:00;;;;;;;23.27;21.77;;;24.30;99.90;;;;;;6197493;23;20008;-90
2023/07/27 19:41:26;;;;;;;23.63;22.15;;;24.30;99.90;;;;;;6198655;23;20012;-90
2023/07/27 19:43:53;;;;;;;23.70;22.10;;;24.30;99.90;;;;;;6222328;23;20017;-90
2023/07/27 19:46:19;;;;;;;23.85;22.10;;;24.30;99.90;;;;;;6197386;23;20008;-92
2023/07/27 19:48:46;;;;;;;22.90;21.60;;;24.30;99.90;;;;;;6197162;23;20125;-89
2023/07/27 19:51:16;;;;;;;22.70;21.40;;;24.20;99.90;;;;;;6221967;23;20018;-90
2023/07/27 19:53:43;;;;;;;22.95;21.45;;;24.30;99.90;;;;;;6197688;22;20059;-91
2023/07/27 19:56:12;;;;;;;22.23;20.92;;;24.30;99.90;;;;;;6221493;23;20075;-91
2023/07/27 19:58:38;;;;;;;22.70;21.23;;;24.20;99.90;;;;;;6197007;23;20461;-90
2023/07/27 20:01:05;;;;;;;22.90;21.45;;;24.20;99.90;;;;;;6222210;23;20031;-89
2023/07/27 20:03:31;;;;;;;22.33;21.00;;;24.20;99.90;;;;;;6196753;23;20034;-92
2023/07/27 20:05:58;;;;;;;21.48;20.23;;;24.10;99.90;;;;;;6221878;23;20039;-91
2023/07/27 20:08:24;;;;;;;21.50;20.30;;;24.20;99.90;;;;;;6196850;23;20039;-91
2023/07/27 20:10:51;;;;;;;21.80;20.70;;;24.10;99.90;;;;;;6221610;23;20008;-92
2023/07/27 20:13:17;;;;;;;23.00;21.50;;;24.10;99.90;;;;;;6196820;23;20000;-91
2023/07/27 20:15:44;;;;;;;21.90;20.67;;;24.10;99.90;;;;;;6221566;23;20012;-90
2023/07/27 20:18:10;;;;;;;22.08;20.88;;;23.90;99.90;;;;;;6196678;23;20360;-90
2023/07/27 20:20:40;;;;;;;22.15;20.80;;;23.90;99.90;;;;;;6222123;23;20124;-91
2023/07/27 20:23:10;;;;;;;23.52;21.75;;;23.80;99.90;;;;;;6196755;23;20114;-90
2023/07/27 20:25:37;;;;;;;23.35;21.42;;;23.80;99.90;;;;;;6196732;23;20354;-90
2023/07/27 20:28:04;;;;;;;22.48;21.10;;;23.70;99.90;;;;;;6221734;23;20087;-90
2023/07/27 20:30:30;;;;;;;22.35;20.92;;;23.60;99.90;;;;;;6196402;23;20004;-91
2023/07/27 20:32:57;;;;;;;23.17;21.17;;;23.50;99.90;;;;;;6196508;23;20008;-90
2023/07/27 20:35:26;;;;;;;23.77;22.05;;;23.40;99.90;;;;;;6221345;23;20004;-89
2023/07/27 20:37:55;;;;;;;22.55;21.08;;;23.50;99.90;;;;;;6193297;23;20005;-90
2023/07/27 20:40:22;;;;;;;23.45;21.65;;;23.40;99.90;;;;;;6196438;23;20004;-90
2023/07/27 20:42:48;;;;;;;22.90;21.40;;;23.40;99.90;;;;;;6196732;23;20327;-90
2023/07/27 20:45:14;;;;;;;22.83;21.42;;;23.30;99.90;;;;;;6196387;22;20469;-90
2023/07/27 20:47:41;;;;;;;22.85;21.10;;;23.40;99.90;;;;;;6221415;23;20028;-90
2023/07/27 20:50:10;;;;;;;22.50;21.10;;;23.40;99.90;;;;;;6196104;23;20031;-91
2023/07/27 20:52:36;;;;;;;21.88;20.63;;;23.40;99.90;;;;;;6196191;23;20087;-90
2023/07/27 20:55:03;;;;;;;21.88;20.58;;;23.40;99.90;;;;;;6196879;23;20012;-90
2023/07/27 20:57:32;;;;;;;22.70;20.90;;;23.30;99.90;;;;;;6190824;23;20040;-90
2023/07/27 20:59:59;;;;;;;22.00;20.60;;;23.30;99.90;;;;;;6191464;23;20091;-90
2023/07/27 21:02:25;;;;;;;22.95;21.08;;;23.30;99.90;;;;;;6191329;23;20031;-91
2023/07/27 21:04:52;;;;;;;22.00;20.27;;;23.30;99.90;;;;;;6216371;23;20096;-92
2023/07/27 21:07:18;;;;;;;21.67;20.27;;;23.20;99.90;;;;;;6191399;23;20438;-90
2023/07/27 21:09:48;;;;;;;22.20;20.55;;;23.10;99.90;;;;;;6216024;23;20043;-91
2023/07/27 21:12:18;;;;;;;22.48;20.90;;;23.00;99.90;;;;;;6191024;23;20473;-92
2023/07/27 21:14:45;;;;;;;21.70;20.33;;;23.00;99.90;;;;;;6216042;23;20088;-92
2023/07/27 21:17:11;;;;;;;21.33;20.02;;;22.90;99.90;;;;;;6191066;23;20008;-89
2023/07/27 21:19:38;;;;;;;21.85;20.20;;;22.90;99.90;;;;;;6215857;23;20012;-90
2023/07/27 21:22:05;;;;;;;21.73;20.20;;;22.80;99.90;;;;;;6190827;23;20004;-91
2023/07/27 21:24:31;;;;;;;21.13;19.75;;;22.70;99.90;;;;;;6191283;23;20035;-91
2023/07/27 21:26:58;;;;;;;21.15;19.83;;;22.60;99.90;;;;;;6217486;23;20342;-89
2023/07/27 21:29:24;;;;;;;21.25;19.85;;;22.60;99.90;;;;;;6194496;23;20031;-90
2023/07/27 21:31:51;;;;;;;20.80;19.70;;;22.60;99.90;;;;;;6216724;23;20008;-91
2023/07/27 21:34:17;;;;;;;21.60;20.10;;;22.60;99.90;;;;;;6190950;23;20043;-90
2023/07/27 21:36:44;;;;;;;22.10;20.60;;;22.60;99.90;;;;;;6216137;23;20011;-89
2023/07/27 21:39:15;;;;;;;22.00;20.17;;;22.60;99.90;;;;;;6191845;23;20005;-90
2023/07/27 21:41:47;;;;;;;22.00;20.15;;;22.60;99.90;;;;;;6191273;23;20015;-90
2023/07/27 21:44:13;;;;;;;21.50;19.83;;;22.60;99.90;;;;;;6215807;23;20044;-91
2023/07/27 21:46:40;;;;;;;21.40;19.95;;;22.60;99.90;;;;;;6191051;23;20095;-90
2023/07/27 21:49:06;;;;;;;21.42;20.13;;;22.60;99.90;;;;;;6190920;23;20008;-90
2023/07/27 21:51:33;;;;;;;21.40;19.80;;;22.60;99.90;;;;;;6190959;23;20000;-90
2023/07/27 21:53:59;;;;;;;21.58;20.25;;;22.60;99.90;;;;;;6215853;23;20008;-90
2023/07/27 21:56:28;;;;;;;21.63;20.33;;;22.50;99.90;;;;;;6190646;23;20449;-90
2023/07/27 21:58:55;;;;;;;21.73;20.00;;;22.40;99.90;;;;;;6215799;23;20008;-91
2023/07/27 22:01:21;;;;;;;22.27;20.23;;;22.40;99.90;;;;;;6190250;23;20051;-89
2023/07/27 22:03:47;;;;;;;21.52;19.90;;;22.40;99.90;;;;;;6215918;23;20020;-90
2023/07/27 22:06:14;;;;;;;21.10;19.90;;;22.30;99.90;;;;;;6191069;23;20005;-89
2023/07/27 22:08:40;;;;;;;21.90;20.30;;;22.30;99.90;;;;;;6215670;23;20035;-91
2023/07/27 22:11:06;;;;;;;21.48;19.90;;;22.30;99.90;;;;;;6190711;23;20008;-89
2023/07/27 22:13:33;;;;;;;20.83;19.52;;;22.30;99.90;;;;;;6215594;23;20018;-90
2023/07/27 22:15:59;;;;;;;20.27;19.08;;;22.40;99.90;;;;;;6190705;23;20008;-91
2023/07/27 22:18:26;;;;;;;20.92;19.70;;;22.30;99.90;;;;;;6216858;23;20000;-92
2023/07/27 22:20:52;;;;;;;21.95;20.17;;;22.20;99.90;;;;;;6195268;23;20410;-91
2023/07/27 22:23:19;;;;;;;20.27;18.88;;;22.30;99.90;;;;;;6217672;23;20004;-91
2023/07/27 22:25:45;;;;;;;21.40;19.67;;;22.30;99.90;;;;;;6190850;23;20004;-90
2023/07/27 22:28:12;;;;;;;20.20;18.80;;;22.20;99.90;;;;;;6215955;23;20012;-90
2023/07/27 22:30:50;;;;;;;20.30;18.95;;;22.30;99.90;;;;;;6191570;23;20005;-93
2023/07/27 22:33:17;;;;;;;20.00;18.80;;;22.30;99.90;;;;;;6190807;23;20004;-92
2023/07/27 22:35:45;;;;;;;20.13;18.83;;;22.40;99.90;;;;;;6215889;23;20091;-92
2023/07/27 22:38:13;;;;;;;19.90;18.55;;;22.50;99.90;;;;;;6190634;23;20004;-91
2023/07/27 22:40:56;;;;;;;19.98;18.67;;;22.60;99.90;;;;;;6215496;23;20016;-93
2023/07/27 22:43:23;;;;;;;20.10;18.70;;;22.70;99.90;;;;;;6190673;23;20068;-91
2023/07/27 22:45:51;;;;;;;20.10;18.52;;;22.70;99.90;;;;;;6215985;23;20012;-93
2023/07/27 22:48:18;;;;;;;20.33;18.92;;;22.70;99.90;;;;;;6190575;23;20008;-93
2023/07/27 22:50:49;;;;;;;19.30;18.10;;;22.70;99.90;;;;;;6215583;23;20020;-93
2023/07/27 22:53:16;;;;;;;19.60;18.40;;;22.60;99.90;;;;;;6190447;23;20091;-91
2023/07/27 22:55:45;;;;;;;20.05;18.67;;;22.50;99.90;;;;;;6215689;23;20017;-92
2023/07/27 22:58:12;;;;;;;19.77;18.58;;;22.50;99.90;;;;;;6196882;22;20047;-93
2023/07/27 23:00:38;;;;;;;19.75;18.35;;;22.30;99.90;;;;;;6215403;23;20013;-91
2023/07/27 23:03:09;;;;;;;19.83;18.45;;;22.20;99.90;;;;;;6215499;23;20060;-88
2023/07/27 23:05:39;;;;;;;19.95;18.60;;;22.20;99.90;;;;;;6241217;23;20021;-92
2023/07/27 23:08:07;;;;;;;19.60;18.30;;;22.10;99.90;;;;;;6242695;23;20438;-72
2023/07/27 23:10:35;;;;;;;19.50;18.02;;;22.10;99.90;;;;;;6215303;23;20096;-73
2023/07/27 23:13:01;;;;;;;19.77;18.58;;;22.10;99.90;;;;;;6216522;23;20377;-72
2023/07/27 23:15:28;;;;;;;20.15;18.65;;;22.00;99.90;;;;;;6217452;23;20074;-72
2023/07/27 23:17:55;;;;;;;19.08;17.98;;;22.00;99.90;;;;;;6217581;23;20008;-72
2023/07/27 23:20:21;;;;;;;19.55;18.17;;;22.00;99.90;;;;;;6215733;23;20035;-72
2023/07/27 23:22:48;;;;;;;20.08;18.45;;;21.90;99.90;;;;;;6217433;23;20008;-72
2023/07/27 23:25:14;;;;;;;19.90;18.50;;;21.80;99.90;;;;;;6217368;23;20060;-72
2023/07/27 23:27:41;;;;;;;19.48;18.23;;;21.80;99.90;;;;;;6217338;23;20019;-89
2023/07/27 23:30:10;;;;;;;19.38;18.08;;;21.80;99.90;;;;;;6210983;23;20067;-81
2023/07/27 23:32:37;;;;;;;19.70;18.20;;;21.90;99.90;;;;;;6217230;23;20490;-72
2023/07/27 23:35:04;;;;;;;18.92;17.67;;;21.80;99.90;;;;;;6217436;23;20016;-76
2023/07/27 23:37:30;;;;;;;19.55;17.73;;;21.70;99.90;;;;;;6215985;23;20020;-82
2023/07/27 23:39:56;;;;;;;18.73;17.52;;;21.70;99.90;;;;;;6217082;23;20015;-77
2023/07/27 23:42:23;;;;;;;18.98;17.58;;;21.60;99.90;;;;;;6217285;23;20056;-73
2023/07/27 23:44:52;;;;;;;19.17;17.75;;;21.60;99.90;;;;;;6217280;23;20320;-75
2023/07/27 23:47:19;;;;;;;18.55;17.45;;;21.60;99.90;;;;;;6217357;23;20001;-79
2023/07/27 23:49:46;;;;;;;18.70;17.38;;;21.70;99.90;;;;;;6215899;23;20032;-74
2023/07/27 23:52:12;;;;;;;18.58;17.27;;;21.80;99.90;;;;;;6241091;23;20083;-76
2023/07/27 23:54:39;;;;;;;18.10;17.10;;;21.90;99.90;;;;;;6217136;23;20036;-80
2023/07/27 23:57:08;;;;;;;18.88;17.40;;;21.90;99.90;;;;;;6217077;23;20079;-73
2023/07/27 23:59:35;;;;;;;19.00;17.90;;;21.90;99.90;;;;;;6216805;23;20541;-75
